Time;durP1;ratioP1;P1;durP2;ratioP2;P2;SDS_P1;SDS_P2;PMS_P1;PMS_P2;Temp;Humidity;BMP_temperature;BMP_pressure;BME280_temperature;BME280_humidity;BME280_pressure;Samples;Min_cycle;Max_cycle;Signal;HPM_P1;HPM_P2
2022/12/05 00:02:08;;;;;;;31.85;23.80;;;4.20;99.90;;;;;;4956505;28;20134;-77
2022/12/05 00:04:34;;;;;;;33.80;24.38;;;4.20;99.90;;;;;;4956696;28;20039;-77
2022/12/05 00:07:00;;;;;;;32.97;23.15;;;4.10;99.90;;;;;;4956774;28;20046;-77
2022/12/05 00:09:26;;;;;;;34.50;24.70;;;4.10;99.90;;;;;;4958848;28;20405;-77
2022/12/05 00:11:52;;;;;;;36.05;23.52;;;4.10;99.90;;;;;;4960599;28;20034;-77
2022/12/05 00:14:18;;;;;;;34.78;24.15;;;4.10;99.90;;;;;;4976358;28;20181;-77
2022/12/05 00:16:44;;;;;;;32.60;23.20;;;4.20;99.90;;;;;;4975859;28;20141;-77
2022/12/05 00:19:12;;;;;;;31.98;22.95;;;4.10;99.90;;;;;;4975843;28;20449;-77
2022/12/05 00:21:38;;;;;;;33.85;23.40;;;4.10;99.90;;;;;;4973628;28;20049;-76
2022/12/05 00:24:07;;;;;;;31.80;22.77;;;4.10;99.90;;;;;;4969474;28;20242;-77
2022/12/05 00:26:33;;;;;;;31.80;23.00;;;4.10;99.90;;;;;;4966552;28;20577;-77
2022/12/05 00:28:59;;;;;;;30.42;22.25;;;4.10;99.90;;;;;;4959739;28;20417;-77
2022/12/05 00:31:26;;;;;;;31.92;22.80;;;4.10;99.90;;;;;;4977954;28;20066;-77
2022/12/05 00:33:53;;;;;;;30.02;21.10;;;4.10;99.90;;;;;;4957212;28;20039;-77
2022/12/05 00:36:23;;;;;;;29.30;21.70;;;4.10;99.90;;;;;;4966317;28;20038;-77
2022/12/05 00:38:50;;;;;;;30.05;22.48;;;4.10;99.90;;;;;;4964611;28;20122;-77
2022/12/05 00:41:18;;;;;;;28.10;21.15;;;4.10;99.90;;;;;;4972664;28;20042;-77
2022/12/05 00:43:44;;;;;;;26.48;19.60;;;4.20;99.90;;;;;;4972619;28;20053;-77
2022/12/05 00:46:13;;;;;;;25.98;20.85;;;4.10;99.90;;;;;;4972393;28;20042;-77
2022/12/05 00:48:40;;;;;;;27.13;21.02;;;4.20;99.90;;;;;;4972201;28;20039;-77
2022/12/05 00:51:21;;;;;;;29.10;21.10;;;4.20;99.90;;;;;;4971522;28;20393;-77
2022/12/05 00:53:48;;;;;;;28.23;20.30;;;4.20;99.90;;;;;;4972500;28;20047;-77
2022/12/05 00:56:17;;;;;;;25.63;20.00;;;4.30;99.90;;;;;;4972280;28;20117;-77
2022/12/05 00:58:43;;;;;;;25.85;19.92;;;4.20;99.90;;;;;;4971837;28;20038;-77
2022/12/05 01:01:14;;;;;;;26.77;19.85;;;4.20;99.90;;;;;;4971385;28;20031;-77
2022/12/05 01:03:41;;;;;;;27.92;20.05;;;4.20;99.90;;;;;;4972130;28;20047;-77
2022/12/05 01:06:08;;;;;;;26.20;19.00;;;4.20;99.90;;;;;;4972154;28;20049;-77
2022/12/05 01:08:34;;;;;;;27.67;19.88;;;4.30;99.90;;;;;;4971779;28;20045;-77
2022/12/05 01:11:00;;;;;;;26.00;18.95;;;4.30;99.90;;;;;;4971744;28;20035;-77
2022/12/05 01:13:27;;;;;;;24.25;18.58;;;4.30;99.90;;;;;;4954893;28;20031;-77
2022/12/05 01:15:53;;;;;;;24.25;19.17;;;4.30;99.90;;;;;;4974396;28;20355;-77
2022/12/05 01:18:20;;;;;;;26.92;19.85;;;4.30;99.90;;;;;;4973086;28;20129;-77
2022/12/05 01:20:46;;;;;;;24.88;18.98;;;4.30;99.90;;;;;;4973096;28;20049;-77
2022/12/05 01:23:12;;;;;;;24.85;18.83;;;4.40;99.90;;;;;;4956013;28;20050;-77
2022/12/05 01:25:43;;;;;;;26.45;19.15;;;4.40;99.90;;;;;;4956161;28;20054;-77
2022/12/05 01:28:09;;;;;;;25.60;19.05;;;4.40;99.90;;;;;;4965064;28;20042;-77
2022/12/05 01:30:39;;;;;;;25.00;19.42;;;4.40;99.90;;;;;;4967061;28;20049;-77
2022/12/05 01:33:06;;;;;;;26.27;19.88;;;4.40;99.90;;;;;;4975033;28;20042;-77
2022/12/05 01:35:32;;;;;;;26.75;19.73;;;4.40;99.90;;;;;;4975157;28;20042;-77
2022/12/05 01:37:58;;;;;;;28.10;21.00;;;4.40;99.90;;;;;;4974427;28;20042;-77
2022/12/05 01:40:24;;;;;;;28.17;21.63;;;4.40;99.90;;;;;;4974399;28;20134;-77
2022/12/05 01:42:50;;;;;;;29.95;21.30;;;4.50;99.90;;;;;;4971024;28;20515;-77
2022/12/05 01:45:23;;;;;;;26.75;20.88;;;4.50;99.90;;;;;;4963584;28;20045;-77
2022/12/05 01:47:49;;;;;;;29.38;21.17;;;4.50;99.90;;;;;;4955235;28;20039;-76
2022/12/05 01:50:14;;;;;;;29.17;22.05;;;4.50;99.90;;;;;;4955260;28;20069;-77
2022/12/05 01:52:40;;;;;;;28.50;21.80;;;4.60;99.90;;;;;;4955059;28;20131;-77
2022/12/05 01:55:10;;;;;;;30.60;22.40;;;4.50;99.90;;;;;;4966078;28;20088;-77
2022/12/05 01:57:37;;;;;;;28.55;22.48;;;4.60;99.90;;;;;;4966694;28;20078;-77
2022/12/05 02:00:09;;;;;;;31.17;23.13;;;4.50;99.90;;;;;;4974560;28;20129;-77
2022/12/05 02:02:36;;;;;;;33.63;24.08;;;4.50;99.90;;;;;;4959081;28;20038;-77
2022/12/05 02:05:08;;;;;;;37.10;24.40;;;4.50;99.90;;;;;;4970249;28;20042;-77
2022/12/05 02:07:35;;;;;;;30.02;23.13;;;4.60;99.90;;;;;;4956721;28;20096;-77
2022/12/05 02:10:01;;;;;;;32.47;23.35;;;4.60;99.90;;;;;;4964913;28;20039;-77
2022/12/05 02:12:27;;;;;;;33.13;23.35;;;4.50;99.90;;;;;;4955265;28;20050;-77
2022/12/05 02:14:55;;;;;;;35.17;24.73;;;4.60;99.90;;;;;;4955922;28;20101;-77
2022/12/05 02:17:33;;;;;;;34.75;25.95;;;4.60;99.90;;;;;;4957812;28;20038;-77
2022/12/05 02:20:10;;;;;;;33.33;25.05;;;4.60;99.90;;;;;;4983744;28;20438;-77
2022/12/05 02:23:05;;;;;;;35.60;25.90;;;4.50;99.90;;;;;;4957072;28;20038;-77
2022/12/05 02:25:56;;;;;;;36.70;25.45;;;4.50;99.90;;;;;;4971851;28;20051;-77
2022/12/05 02:28:37;;;;;;;37.63;25.90;;;4.50;99.90;;;;;;4958493;28;20054;-77
2022/12/05 02:31:23;;;;;;;36.85;26.00;;;4.50;99.90;;;;;;4973583;28;20042;-77
2022/12/05 02:34:15;;;;;;;35.80;25.63;;;4.50;99.90;;;;;;4966382;28;20114;-77
2022/12/05 02:36:51;;;;;;;37.08;26.63;;;4.50;99.90;;;;;;4958473;28;20121;-77
2022/12/05 02:39:24;;;;;;;38.25;26.67;;;4.60;99.90;;;;;;4958499;28;20046;-77
2022/12/05 02:41:54;;;;;;;39.92;27.48;;;4.50;99.90;;;;;;4958626;28;20453;-77
2022/12/05 02:44:53;;;;;;;37.20;26.55;;;4.60;99.90;;;;;;4962611;28;20043;-77
2022/12/05 02:47:24;;;;;;;41.30;28.60;;;4.60;99.90;;;;;;4950765;28;20051;-77
2022/12/05 02:49:51;;;;;;;37.97;27.35;;;4.50;99.90;;;;;;4958646;28;20086;-77
2022/12/05 02:52:18;;;;;;;41.17;28.33;;;4.60;99.90;;;;;;4958036;28;20046;-77
2022/12/05 02:54:48;;;;;;;40.17;27.30;;;4.60;99.90;;;;;;4958540;28;20043;-77
2022/12/05 02:57:15;;;;;;;42.47;29.20;;;4.50;99.90;;;;;;4957929;28;20035;-77
2022/12/05 02:59:41;;;;;;;43.28;28.42;;;4.50;99.90;;;;;;4969449;28;20034;-77
2022/12/05 03:02:08;;;;;;;44.42;29.65;;;4.50;99.90;;;;;;4977471;28;20390;-77
2022/12/05 03:04:34;;;;;;;41.33;28.65;;;4.50;99.90;;;;;;4977188;28;20042;-77
2022/12/05 03:07:07;;;;;;;45.30;28.67;;;4.50;99.90;;;;;;4976973;28;20125;-77
2022/12/05 03:09:48;;;;;;;44.58;28.98;;;4.50;99.90;;;;;;4974908;28;20464;-77
2022/12/05 03:12:21;;;;;;;44.58;28.77;;;4.50;99.90;;;;;;4972606;28;20038;-77
2022/12/05 03:15:01;;;;;;;42.60;29.05;;;4.50;99.90;;;;;;4977145;28;20042;-77
2022/12/05 03:17:42;;;;;;;47.47;29.75;;;4.50;99.90;;;;;;4977146;28;20101;-77
2022/12/05 03:20:33;;;;;;;47.65;29.73;;;4.50;99.90;;;;;;4977277;28;20050;-77
2022/12/05 03:23:14;;;;;;;46.25;29.83;;;4.50;99.90;;;;;;4975968;28;20042;-77
2022/12/05 03:26:03;;;;;;;44.75;28.00;;;4.50;99.90;;;;;;4966160;28;20045;-77
2022/12/05 03:28:58;;;;;;;48.13;30.23;;;4.50;99.90;;;;;;4965372;28;20539;-77
2022/12/05 03:31:52;;;;;;;49.47;28.67;;;4.50;99.90;;;;;;4973765;28;20401;-77
2022/12/05 03:34:34;;;;;;;49.63;30.27;;;4.40;99.90;;;;;;4972670;28;20050;-77
2022/12/05 03:37:04;;;;;;;48.30;31.47;;;4.50;99.90;;;;;;4967147;28;20038;-77
2022/12/05 03:39:34;;;;;;;47.50;29.73;;;4.50;99.90;;;;;;4968111;28;20042;-77
2022/12/05 03:42:02;;;;;;;51.67;30.85;;;4.50;99.90;;;;;;4957411;28;20401;-78
2022/12/05 03:44:32;;;;;;;52.80;31.17;;;4.50;99.90;;;;;;4957653;28;20050;-77
2022/12/05 03:47:11;;;;;;;50.78;31.98;;;4.60;99.90;;;;;;4957388;28;20101;-77
2022/12/05 03:50:08;;;;;;;54.90;32.33;;;4.60;99.90;;;;;;4979515;28;20042;-77
2022/12/05 03:52:42;;;;;;;50.67;31.85;;;4.60;99.90;;;;;;4983510;28;20392;-77
2022/12/05 03:55:12;;;;;;;52.35;32.10;;;4.60;99.90;;;;;;4976686;28;20046;-77
2022/12/05 03:57:51;;;;;;;52.25;32.85;;;4.60;99.90;;;;;;4976329;28;20081;-77
2022/12/05 04:00:20;;;;;;;52.85;31.08;;;4.60;99.90;;;;;;4984259;28;20069;-77
2022/12/05 04:03:10;;;;;;;52.20;31.63;;;4.70;99.90;;;;;;4990646;28;20129;-77
2022/12/05 04:05:50;;;;;;;50.03;31.65;;;4.70;99.90;;;;;;4973850;28;20548;-77
2022/12/05 04:08:30;;;;;;;49.65;31.67;;;4.80;99.90;;;;;;4971821;28;20085;-77
2022/12/05 04:11:01;;;;;;;50.28;30.85;;;4.80;99.90;;;;;;4976517;28;20318;-77
2022/12/05 04:13:43;;;;;;;45.65;30.33;;;4.80;99.90;;;;;;4976414;28;20452;-78
2022/12/05 04:19:06;;;;;;;47.40;29.38;;;4.80;99.90;;;;;;4980556;28;20506;-77
2022/12/05 04:21:45;;;;;;;47.95;29.52;;;4.80;99.90;;;;;;4973504;28;20088;-77
2022/12/05 04:27:21;;;;;;;45.78;29.52;;;4.80;99.90;;;;;;4991645;28;20051;-78
2022/12/05 04:30:10;;;;;;;42.92;27.88;;;4.80;99.90;;;;;;4971759;28;20126;-77
2022/12/05 04:32:58;;;;;;;41.95;28.17;;;4.90;99.90;;;;;;4973727;28;20043;-77
2022/12/05 04:35:40;;;;;;;43.35;26.98;;;4.90;99.90;;;;;;4975705;28;20397;-77
2022/12/05 04:38:26;;;;;;;39.17;26.52;;;4.90;99.90;;;;;;4975664;28;20058;-77
2022/12/05 04:41:02;;;;;;;41.00;25.17;;;4.90;99.90;;;;;;4975046;28;20428;-77
2022/12/05 04:43:32;;;;;;;38.88;27.02;;;4.90;99.90;;;;;;4974132;28;20044;-77
2022/12/05 04:46:01;;;;;;;39.95;25.92;;;5.00;99.90;;;;;;4968909;28;20042;-77
2022/12/05 04:48:28;;;;;;;35.45;24.23;;;5.00;99.90;;;;;;4975116;28;20048;-77
2022/12/05 04:50:56;;;;;;;35.83;23.63;;;4.90;99.90;;;;;;4975982;28;20048;-77
2022/12/05 04:53:26;;;;;;;31.98;22.33;;;4.90;99.90;;;;;;4975134;28;20077;-77
2022/12/05 04:55:54;;;;;;;37.38;23.95;;;5.00;99.90;;;;;;4974238;28;20034;-77
2022/12/05 04:58:23;;;;;;;32.55;22.70;;;5.00;99.90;;;;;;4972024;28;20038;-77
2022/12/05 05:01:07;;;;;;;32.22;22.67;;;5.00;99.90;;;;;;4956014;28;20043;-77
2022/12/05 05:03:51;;;;;;;31.27;23.02;;;5.00;99.90;;;;;;4956138;28;20344;-77
2022/12/05 05:06:17;;;;;;;29.75;21.02;;;5.00;99.90;;;;;;4955692;28;20089;-77
2022/12/05 05:08:53;;;;;;;30.02;20.90;;;5.00;99.90;;;;;;4955619;28;20053;-77
2022/12/05 05:11:20;;;;;;;29.60;21.38;;;5.00;99.90;;;;;;4965542;28;20038;-77
2022/12/05 05:13:46;;;;;;;26.42;20.35;;;5.00;99.90;;;;;;4956222;28;20274;-77
2022/12/05 05:16:20;;;;;;;28.58;19.83;;;5.00;99.90;;;;;;4955714;28;20043;-77
2022/12/05 05:18:48;;;;;;;27.48;19.35;;;5.00;99.90;;;;;;4955284;28;20042;-77
2022/12/05 05:21:22;;;;;;;28.13;19.98;;;5.00;99.90;;;;;;4969833;28;20038;-78
2022/12/05 05:23:48;;;;;;;28.25;20.23;;;5.00;99.90;;;;;;4955611;28;20612;-78
2022/12/05 05:26:14;;;;;;;24.67;19.13;;;5.00;99.90;;;;;;4955873;28;20129;-78
2022/12/05 05:28:40;;;;;;;25.92;19.60;;;5.00;99.90;;;;;;4955474;28;20047;-78
2022/12/05 05:31:06;;;;;;;24.50;18.42;;;5.00;99.90;;;;;;4955495;28;20041;-77
2022/12/05 05:33:33;;;;;;;24.08;19.13;;;5.00;99.90;;;;;;4955953;28;20093;-77
2022/12/05 05:36:06;;;;;;;24.83;20.13;;;5.10;99.90;;;;;;4963900;28;20089;-77
2022/12/05 05:38:45;;;;;;;22.88;18.77;;;5.00;99.90;;;;;;4955675;28;20129;-77
2022/12/05 05:41:20;;;;;;;23.30;17.95;;;5.00;99.90;;;;;;4955818;28;20121;-77
2022/12/05 05:43:46;;;;;;;23.70;18.55;;;5.00;99.90;;;;;;4955835;28;20082;-77
2022/12/05 05:46:14;;;;;;;22.13;18.10;;;5.10;99.90;;;;;;4958681;28;20506;-77
2022/12/05 05:48:40;;;;;;;23.95;18.50;;;5.10;99.90;;;;;;4969647;28;20575;-77
2022/12/05 05:51:09;;;;;;;20.92;16.00;;;5.10;99.90;;;;;;4963390;28;20123;-77
2022/12/05 05:53:34;;;;;;;22.23;17.55;;;5.10;99.90;;;;;;4955222;28;20510;-77
2022/12/05 05:56:06;;;;;;;18.95;16.90;;;5.20;99.90;;;;;;4955249;28;20039;-77
2022/12/05 05:58:32;;;;;;;17.42;15.43;;;5.20;99.90;;;;;;4955296;28;20477;-77
2022/12/05 06:01:30;;;;;;;16.95;14.98;;;5.20;99.90;;;;;;4966458;28;20073;-77
2022/12/05 06:03:57;;;;;;;17.98;15.48;;;5.20;99.90;;;;;;4947806;28;20486;-77
2022/12/05 06:06:23;;;;;;;16.70;14.95;;;5.20;99.90;;;;;;4970401;28;20042;-77
2022/12/05 06:08:49;;;;;;;16.52;14.32;;;5.30;99.90;;;;;;4978383;28;20042;-77
2022/12/05 06:11:24;;;;;;;15.75;13.30;;;5.20;99.90;;;;;;4978928;28;20038;-77
2022/12/05 06:13:50;;;;;;;12.80;11.43;;;5.20;99.90;;;;;;4979144;28;20388;-80
2022/12/05 06:16:18;;;;;;;13.43;11.27;;;5.20;99.90;;;;;;4978389;28;20039;-77
2022/12/05 06:18:44;;;;;;;12.55;10.45;;;5.30;99.90;;;;;;4968710;28;20457;-78
2022/12/05 06:21:12;;;;;;;12.02;10.38;;;5.30;99.90;;;;;;4978645;28;20034;-79
2022/12/05 06:23:39;;;;;;;11.20;9.45;;;5.30;99.90;;;;;;4974892;28;20505;-78
2022/12/05 06:26:11;;;;;;;10.73;9.63;;;5.30;99.90;;;;;;4971269;28;20520;-79
2022/12/05 06:28:39;;;;;;;11.87;9.93;;;5.20;99.90;;;;;;4975963;28;20211;-79
2022/12/05 06:31:12;;;;;;;10.70;8.77;;;5.20;99.90;;;;;;4960949;28;20289;-79
2022/12/05 06:33:38;;;;;;;11.32;9.88;;;5.30;99.90;;;;;;4967372;28;20528;-78
2022/12/05 06:36:40;;;;;;;10.75;9.68;;;5.30;99.90;;;;;;4980166;28;20085;-82
2022/12/05 06:39:09;;;;;;;11.35;10.15;;;5.30;99.90;;;;;;4976255;28;20039;-81
2022/12/05 06:41:35;;;;;;;11.32;10.07;;;5.20;99.90;;;;;;4979055;28;20074;-78
2022/12/05 06:44:04;;;;;;;10.40;9.30;;;5.30;99.90;;;;;;4977749;28;20505;-77
2022/12/05 06:46:30;;;;;;;11.07;9.90;;;5.20;99.90;;;;;;4976650;28;20078;-77
2022/12/05 06:48:57;;;;;;;11.35;10.23;;;5.20;99.90;;;;;;4966180;28;20039;-77
2022/12/05 06:51:23;;;;;;;11.55;10.38;;;5.30;99.90;;;;;;4974470;28;20070;-79
2022/12/05 06:53:49;;;;;;;10.50;9.40;;;5.30;99.90;;;;;;4976786;28;20035;-77
2022/12/05 06:56:18;;;;;;;11.05;9.95;;;5.30;99.90;;;;;;4967188;28;20163;-77
2022/12/05 06:58:46;;;;;;;11.18;9.98;;;5.30;99.90;;;;;;4973359;28;20078;-77
2022/12/05 07:07:46;;;;;;;10.57;9.52;;;5.40;99.90;;;;;;5000937;28;20045;-78
2022/12/05 07:10:12;;;;;;;10.60;9.40;;;5.30;99.90;;;;;;4978765;28;20104;-79
2022/12/05 07:12:41;;;;;;;10.25;9.25;;;5.40;99.90;;;;;;4971042;28;20039;-80
2022/12/05 07:15:09;;;;;;;9.75;8.75;;;5.30;99.90;;;;;;4966770;28;20401;-80
2022/12/05 07:17:44;;;;;;;10.15;9.10;;;5.30;99.90;;;;;;4966706;28;20050;-81
2022/12/05 07:20:18;;;;;;;9.95;8.95;;;5.30;99.90;;;;;;4967304;28;20047;-81
2022/12/05 07:22:49;;;;;;;10.38;9.27;;;5.30;99.90;;;;;;4967176;28;20054;-80
2022/12/05 07:25:23;;;;;;;9.45;8.48;;;5.30;99.90;;;;;;4961940;28;20433;-79
2022/12/05 07:27:49;;;;;;;9.60;8.60;;;5.30;99.90;;;;;;4961974;28;20074;-79
2022/12/05 07:30:20;;;;;;;8.95;7.68;;;5.30;99.90;;;;;;4960977;28;20486;-80
2022/12/05 07:32:46;;;;;;;8.32;7.43;;;5.30;99.90;;;;;;4959692;28;20587;-79
2022/12/05 07:35:12;;;;;;;8.18;7.22;;;5.30;99.90;;;;;;4960846;28;20043;-79
2022/12/05 07:37:41;;;;;;;9.73;7.90;;;5.30;99.90;;;;;;4960231;28;20054;-80
2022/12/05 07:40:08;;;;;;;8.40;6.72;;;5.20;99.90;;;;;;4960572;28;20049;-79
2022/12/05 07:42:34;;;;;;;8.32;6.90;;;5.20;99.90;;;;;;4960116;28;20051;-79
2022/12/05 07:45:03;;;;;;;8.77;6.95;;;5.20;99.90;;;;;;4959337;28;20142;-79
2022/12/05 07:47:31;;;;;;;8.20;6.72;;;5.30;99.90;;;;;;4959612;28;20039;-79
2022/12/05 07:50:00;;;;;;;8.65;7.05;;;5.20;99.90;;;;;;4959685;28;20042;-79
2022/12/05 07:52:29;;;;;;;9.55;7.30;;;5.20;99.90;;;;;;4961097;28;20109;-80
2022/12/05 07:55:00;;;;;;;8.80;7.50;;;5.20;99.90;;;;;;4960547;28;20046;-80
2022/12/05 07:57:32;;;;;;;9.45;7.88;;;5.20;99.90;;;;;;4961678;28;20055;-79
2022/12/05 08:00:05;;;;;;;8.63;7.25;;;5.20;99.90;;;;;;4960859;28;20046;-80
2022/12/05 08:02:34;;;;;;;11.50;7.95;;;5.20;99.90;;;;;;4961222;28;20042;-80
2022/12/05 08:04:59;;;;;;;8.45;7.25;;;5.30;99.90;;;;;;4961208;28;20045;-79
2022/12/05 08:07:28;;;;;;;8.70;7.47;;;5.30;99.90;;;;;;4944696;28;20125;-80
2022/12/05 08:09:57;;;;;;;10.27;8.07;;;5.20;99.90;;;;;;4961285;28;20046;-80
2022/12/05 08:12:26;;;;;;;10.32;7.40;;;5.20;99.90;;;;;;4961637;28;20378;-79
2022/12/05 08:14:52;;;;;;;9.57;7.60;;;5.20;99.90;;;;;;4961378;28;20039;-80
2022/12/05 08:17:21;;;;;;;9.48;7.68;;;5.30;99.90;;;;;;4960791;28;20050;-79
2022/12/05 08:19:49;;;;;;;10.43;8.00;;;5.30;99.90;;;;;;4960567;28;20053;-80
2022/12/05 08:22:23;;;;;;;9.02;7.57;;;5.30;99.90;;;;;;4960314;28;20497;-80
2022/12/05 08:24:55;;;;;;;10.18;8.40;;;5.30;99.90;;;;;;4960345;28;20042;-80
2022/12/05 08:27:24;;;;;;;9.97;8.00;;;5.30;99.90;;;;;;4960434;28;20122;-80
2022/12/05 08:29:52;;;;;;;9.45;8.45;;;5.40;99.90;;;;;;4961003;28;20384;-79
2022/12/05 08:32:21;;;;;;;11.48;8.45;;;5.40;99.90;;;;;;4960707;28;20035;-79
2022/12/05 08:34:48;;;;;;;9.35;8.30;;;5.30;99.90;;;;;;4960347;28;20042;-79
2022/12/05 08:37:22;;;;;;;11.48;8.55;;;5.40;99.90;;;;;;4961459;28;20050;-80
2022/12/05 08:39:50;;;;;;;12.23;9.02;;;5.40;99.90;;;;;;4961288;28;20046;-80
2022/12/05 08:42:21;;;;;;;10.45;9.30;;;5.40;99.90;;;;;;4961466;28;20129;-80
2022/12/05 08:44:50;;;;;;;10.27;8.90;;;5.40;99.90;;;;;;4960328;28;20058;-80
2022/12/05 08:47:26;;;;;;;9.85;8.52;;;5.40;99.90;;;;;;4960609;28;20039;-80
2022/12/05 08:49:52;;;;;;;12.23;9.35;;;5.40;99.90;;;;;;4961749;28;20045;-79
2022/12/05 08:52:21;;;;;;;11.68;8.98;;;5.40;99.90;;;;;;4962010;28;20417;-79
2022/12/05 08:54:47;;;;;;;11.25;9.20;;;5.50;99.90;;;;;;4960679;28;20457;-80
2022/12/05 08:57:14;;;;;;;11.63;9.25;;;5.40;99.90;;;;;;4960637;28;20524;-80
2022/12/05 08:59:48;;;;;;;11.60;9.25;;;5.40;99.90;;;;;;4961215;28;20039;-80
2022/12/05 09:02:17;;;;;;;13.15;9.90;;;5.50;99.90;;;;;;4961680;28;20584;-80
2022/12/05 09:04:46;;;;;;;11.63;9.40;;;5.50;99.90;;;;;;4961338;28;20450;-79
2022/12/05 09:07:12;;;;;;;13.80;9.75;;;5.40;99.90;;;;;;4960452;28;20039;-79
2022/12/05 09:09:41;;;;;;;14.43;9.77;;;5.40;99.90;;;;;;4961731;28;20039;-79
2022/12/05 09:12:13;;;;;;;12.52;9.73;;;5.50;99.90;;;;;;4961577;28;20097;-80
2022/12/05 09:14:41;;;;;;;13.98;9.75;;;5.40;99.90;;;;;;4962963;28;20039;-80
2022/12/05 09:17:08;;;;;;;12.90;9.60;;;5.50;99.90;;;;;;4961020;28;20054;-79
2022/12/05 09:19:37;;;;;;;13.52;10.27;;;5.50;99.90;;;;;;4959170;28;20038;-79
2022/12/05 09:22:06;;;;;;;13.63;9.55;;;5.50;99.90;;;;;;4958409;28;20413;-79
2022/12/05 09:24:34;;;;;;;10.95;9.38;;;5.50;99.90;;;;;;4959670;28;20053;-79
2022/12/05 09:27:01;;;;;;;12.20;9.05;;;5.50;99.90;;;;;;4960595;28;20038;-79
2022/12/05 09:29:30;;;;;;;11.52;8.77;;;5.50;99.90;;;;;;4959716;28;20043;-79
2022/12/05 09:31:56;;;;;;;10.70;8.35;;;5.50;99.90;;;;;;4960295;28;20074;-79
2022/12/05 09:34:25;;;;;;;12.63;9.00;;;5.50;99.90;;;;;;4961404;28;20097;-79
2022/12/05 09:37:01;;;;;;;11.32;9.23;;;5.50;99.90;;;;;;4960842;28;20042;-80
2022/12/05 09:39:30;;;;;;;12.35;9.20;;;5.50;99.90;;;;;;4960494;28;20120;-80
2022/12/05 09:42:08;;;;;;;13.32;9.15;;;5.50;99.90;;;;;;4962360;28;20103;-79
2022/12/05 09:44:34;;;;;;;13.68;9.90;;;5.50;99.90;;;;;;4962054;28;20039;-80
2022/12/05 09:47:14;;;;;;;13.55;9.73;;;5.50;99.90;;;;;;4962092;28;20046;-80
2022/12/05 09:50:12;;;;;;;11.63;9.15;;;5.50;99.90;;;;;;4966958;28;20087;-80
2022/12/05 09:52:43;;;;;;;11.48;8.48;;;5.40;99.90;;;;;;4971289;28;20034;-79
2022/12/05 09:55:17;;;;;;;11.38;9.20;;;5.50;99.90;;;;;;4968802;28;20096;-80
2022/12/05 09:58:18;;;;;;;12.45;9.82;;;5.40;99.90;;;;;;4965421;28;20042;-80
2022/12/05 10:00:48;;;;;;;;;;;5.50;99.90;;;;;;4970159;28;20074;-80
2022/12/05 10:03:37;;;;;;;13.60;10.32;;;5.40;99.90;;;;;;4980092;28;19972;-79
2022/12/05 10:06:16;;;;;;;16.30;11.63;;;5.40;99.90;;;;;;4959953;28;20042;-79
2022/12/05 10:09:13;;;;;;;15.68;12.38;;;5.50;99.90;;;;;;4960537;28;20093;-79
2022/12/05 10:11:49;;;;;;;13.60;10.05;;;5.40;99.90;;;;;;4955760;28;20132;-79
2022/12/05 10:14:58;;;;;;;11.60;9.45;;;5.50;99.90;;;;;;4956020;28;20046;-79
2022/12/05 10:17:36;;;;;;;12.43;10.43;;;5.40;99.90;;;;;;4913438;28;20054;-79
2022/12/05 10:20:16;;;;;;;13.88;10.93;;;5.40;99.90;;;;;;4955900;28;20049;-79
2022/12/05 10:23:16;;;;;;;14.15;11.40;;;5.40;99.90;;;;;;4955856;28;20078;-79
2022/12/05 10:25:43;;;;;;;14.07;11.15;;;5.40;99.90;;;;;;4954158;28;20042;-79
2022/12/05 10:28:36;;;;;;;15.93;11.18;;;5.40;99.90;;;;;;4956118;28;20505;-79
2022/12/05 10:31:04;;;;;;;;;;;5.30;99.90;;;;;;4956276;28;20046;-79
2022/12/05 10:33:53;;;;;;;17.70;11.40;;;5.30;99.90;;;;;;4956828;28;19989;-79
2022/12/05 10:36:35;;;;;;;14.38;10.55;;;5.30;99.90;;;;;;4958257;28;20046;-79
2022/12/05 10:39:18;;;;;;;14.68;10.43;;;5.30;99.90;;;;;;4956525;28;20035;-79
2022/12/05 10:41:44;;;;;;;13.35;10.20;;;5.20;99.90;;;;;;4955909;28;20525;-79
2022/12/05 10:44:10;;;;;;;14.38;11.00;;;5.30;99.90;;;;;;4955952;28;20421;-79
2022/12/05 10:46:57;;;;;;;13.60;10.30;;;5.20;99.90;;;;;;4958077;28;20043;-80
2022/12/05 10:49:32;;;;;;;14.60;10.93;;;5.20;99.90;;;;;;4975849;28;20038;-80
2022/12/05 10:52:04;;;;;;;11.83;10.03;;;5.30;99.90;;;;;;4959284;28;20054;-80
2022/12/05 10:54:40;;;;;;;12.83;10.70;;;5.20;99.90;;;;;;4959690;28;20045;-79
2022/12/05 10:57:34;;;;;;;18.23;13.85;;;5.10;99.90;;;;;;4944603;28;20278;-80
2022/12/05 11:00:18;;;;;;;20.98;15.30;;;5.10;99.90;;;;;;4957328;28;20086;-79
2022/12/05 11:02:58;;;;;;;19.65;14.32;;;5.10;99.90;;;;;;4960679;28;20055;-79
2022/12/05 11:05:30;;;;;;;18.40;13.80;;;5.20;99.90;;;;;;4959688;28;20051;-80
2022/12/05 11:08:29;;;;;;;20.75;16.73;;;5.10;99.90;;;;;;4975572;28;20462;-80
2022/12/05 11:11:24;;;;;;;15.93;11.50;;;5.20;99.90;;;;;;4959166;28;20058;-80
2022/12/05 11:14:05;;;;;;;17.17;12.40;;;5.20;99.90;;;;;;4956967;28;20090;-79
2022/12/05 11:16:53;;;;;;;17.27;12.98;;;5.20;99.90;;;;;;4959574;28;20042;-80
2022/12/05 11:19:30;;;;;;;14.82;10.82;;;5.10;99.90;;;;;;4957655;28;20086;-80
2022/12/05 11:22:07;;;;;;;15.02;11.32;;;5.10;99.90;;;;;;4958878;28;20051;-80
2022/12/05 11:24:39;;;;;;;14.73;10.25;;;5.20;99.90;;;;;;4958990;28;20129;-80
2022/12/05 11:27:41;;;;;;;;;;;;;;;;;;;;;
2022/12/05 11:33:23;;;;;;;12.63;9.18;;;5.20;99.90;;;;;;4969173;28;20492;-80
2022/12/05 11:36:17;;;;;;;14.18;10.05;;;5.20;99.90;;;;;;4958465;28;20039;-80
2022/12/05 11:39:09;;;;;;;13.85;10.13;;;5.00;99.90;;;;;;4958154;28;20043;-80
2022/12/05 11:42:13;;;;;;;13.07;10.30;;;5.10;99.90;;;;;;4957503;28;20086;-79
2022/12/05 11:45:09;;;;;;;13.63;10.27;;;5.10;99.90;;;;;;4958497;28;20125;-80
2022/12/05 11:48:03;;;;;;;16.45;10.55;;;5.10;99.90;;;;;;4958568;28;20501;-80
2022/12/05 11:51:07;;;;;;;19.60;12.80;;;5.10;99.90;;;;;;4956966;28;20062;-80
2022/12/05 11:57:54;;;;;;;14.27;10.85;;;5.10;99.90;;;;;;4971843;28;20047;-80
2022/12/05 12:01:22;;;;;;;16.13;10.90;;;5.10;99.90;;;;;;4959610;28;20047;-80
2022/12/05 12:04:19;;;;;;;15.25;12.40;;;5.10;99.90;;;;;;4958370;28;20501;-80
2022/12/05 12:07:12;;;;;;;14.13;10.23;;;5.10;99.90;;;;;;4958466;28;20053;-80
2022/12/05 12:10:21;;;;;;;15.23;11.13;;;5.10;99.90;;;;;;4959146;28;20094;-80
2022/12/05 12:13:40;;;;;;;15.43;11.95;;;5.10;99.90;;;;;;4971378;28;20386;-80
2022/12/05 12:16:40;;;;;;;18.33;12.63;;;5.10;99.90;;;;;;4957878;28;20113;-80
2022/12/05 12:19:52;;;;;;;20.05;11.25;;;5.10;99.90;;;;;;4955799;28;20082;-80
2022/12/05 12:22:54;;;;;;;23.55;13.35;;;5.10;99.90;;;;;;4934745;29;20047;-80
2022/12/05 12:26:02;;;;;;;19.48;12.07;;;5.10;99.90;;;;;;4971770;28;20047;-80
2022/12/05 12:28:59;;;;;;;18.80;11.80;;;5.10;99.90;;;;;;4973775;28;20089;-80
2022/12/05 12:32:06;;;;;;;17.40;11.40;;;5.00;99.90;;;;;;4957322;28;20045;-80
2022/12/05 12:35:34;;;;;;;16.65;10.75;;;5.00;99.90;;;;;;4938165;28;20050;-80
2022/12/05 12:38:30;;;;;;;18.65;11.27;;;5.10;99.90;;;;;;4902751;29;20040;-80
2022/12/05 12:41:29;;;;;;;21.80;13.40;;;5.10;99.90;;;;;;4902395;29;20055;-80
2022/12/05 12:44:49;;;;;;;20.63;12.02;;;5.10;99.90;;;;;;4980828;28;20066;-80
2022/12/05 12:48:20;;;;;;;20.13;14.10;;;5.10;99.90;;;;;;4979389;28;20043;-80
2022/12/05 12:51:22;;;;;;;27.63;15.15;;;5.10;99.90;;;;;;4960579;28;20086;-80
2022/12/05 12:54:46;;;;;;;18.90;12.43;;;5.10;99.90;;;;;;4958981;28;20506;-80
2022/12/05 12:57:29;;;;;;;22.60;13.93;;;5.10;99.90;;;;;;4930437;28;20051;-80
2022/12/05 13:00:35;;;;;;;17.48;12.15;;;5.20;99.90;;;;;;4958570;28;20073;-80
2022/12/05 13:03:23;;;;;;;19.27;14.52;;;5.20;99.90;;;;;;4958240;28;20062;-80
2022/12/05 13:06:57;;;;;;;18.98;11.30;;;5.20;99.90;;;;;;4962984;28;20050;-80
2022/12/05 13:10:11;;;;;;;20.35;14.18;;;5.20;99.90;;;;;;4939776;28;20050;-80
2022/12/05 13:16:52;;;;;;;15.20;10.23;;;5.20;99.90;;;;;;4952950;29;20054;-80
2022/12/05 13:20:04;;;;;;;11.77;9.40;;;5.30;99.90;;;;;;4948807;28;20717;-80
2022/12/05 13:23:05;;;;;;;13.75;9.20;;;5.20;99.90;;;;;;4972908;28;20118;-80
2022/12/05 13:25:40;;;;;;;15.13;10.02;;;5.30;99.90;;;;;;4956076;28;20051;-80
2022/12/05 13:28:45;;;;;;;11.73;8.48;;;5.20;99.90;;;;;;4955804;28;20050;-80
2022/12/05 13:31:18;;;;;;;11.23;7.50;;;5.20;99.90;;;;;;4893015;28;20059;-79
2022/12/05 13:33:49;;;;;;;11.25;7.90;;;5.30;99.90;;;;;;4955872;28;20043;-81
2022/12/05 13:42:15;;;;;;;9.57;7.15;;;5.20;99.90;;;;;;4971608;28;20497;-79
2022/12/05 13:44:52;;;;;;;9.70;7.20;;;5.20;99.90;;;;;;4955515;28;20042;-79
2022/12/05 13:47:43;;;;;;;9.02;6.88;;;5.20;99.90;;;;;;4955035;28;20117;-79
2022/12/05 13:50:52;;;;;;;9.57;7.07;;;5.20;99.90;;;;;;4956874;28;20058;-80
2022/12/05 13:53:59;;;;;;;9.68;7.72;;;5.20;99.90;;;;;;4956109;28;20050;-80
2022/12/05 13:57:04;;;;;;;10.23;7.03;;;5.20;99.90;;;;;;4956543;28;20051;-80
2022/12/05 14:00:06;;;;;;;9.68;6.75;;;5.20;99.90;;;;;;4956202;28;20090;-79
2022/12/05 14:02:50;;;;;;;8.05;5.78;;;5.20;99.90;;;;;;4956210;28;20046;-80